x

Central Dixon Entrance Buoy (46145) Wave Buoy

9:00am - Wed 20th Aug 2014 All times are PDT. -7 hours from GMT.

  • Sig Wave height 3.3ft
  • Peak Period 8s
  • Wind
    11mph, 13mph gusts
  • Sea Temp 57°f
  • Air Temp 56°f
  • Sea Pressure 1014.7mb
  • Central Dixon Entrance Buoy
  • Central Dixon Entrance Buoy

More Historic Weather Station data

Upgrade to MSW Pro to gain access to the past 30 days of data for over 8000 Wavebouys and Weather Stations around the globe.

Join Pro

Comparision Forecast

View Surf forecast
   
Wed 08/20 9:00am 3.5ft 8s 11 13 mph 1014.7mb 57f 56f
8:00am 3.5ft 8s 9 13 mph 1014.7mb 57f 56f
7:00am 3.5ft 8s 11 13 mph 1014.6mb 57f 57f
6:00am 3.5ft 9s 9 11 mph 1014.6mb 57f 56f
5:00am 3.5ft 8s 11 13 mph 1014.5mb 57f 56f
4:00am 3.5ft 9s 11 13 mph 1014.6mb 57f 56f
3:00am 3.5ft 9s 11 13 mph 1014.7mb 57f 57f
2:00am 3.5ft 10s 13 18 mph 1014.7mb 58f 57f
1:00am 3.5ft 5s 16 20 mph 1014.5mb 58f 57f
12:00am 4ft 5s 16 20 mph 1014.4mb 58f 57f
Tue 08/19 11:00pm 4.5ft 5s 18 22 mph 1014.4mb 58f 58f
10:00pm 4.5ft 10s 20 22 mph 1014.6mb 58f 58f
9:00pm 4.5ft 5s 20 25 mph 1014.5mb 58f 58f
8:00pm 5ft 10s 20 22 mph 1014.3mb 58f 58f
7:00pm 4.5ft 8s 20 25 mph 1014.7mb 58f 58f
6:00pm 4.5ft 9s 20 25 mph 1015.1mb 58f 58f
5:00pm 4.5ft 9s 20 25 mph 1015.5mb 58f 59f
4:00pm 4.5ft 9s 20 25 mph 1015.7mb 58f 58f
3:00pm 3.5ft 8s 18 22 mph 1015.8mb 58f 58f
2:00pm 3.5ft 9s 18 20 mph 1015.9mb 58f 58f
1:00pm 3.5ft 9s 13 16 mph 1016mb 58f 58f
12:00pm 4ft 10s 16 18 mph 1015.9mb 58f 57f
11:00am 3.5ft 10s 16 18 mph 1015.8mb 58f 57f
10:00am 4ft 10s 16 20 mph 1016.1mb 58f 58f
9:00am 3.5ft 9s 16 18 mph 1015.9mb 58f 57f
8:00am 4ft 10s 16 18 mph 1015.8mb 57f 57f
7:00am 4.5ft 10s 18 22 mph 1015.8mb 58f 57f
6:00am 4.5ft 8s 13 16 mph 1016.2mb 58f 57f
5:00am 4.5ft 9s 13 18 mph 1016.2mb 58f 57f
4:00am 4.5ft 10s 16 20 mph 1016.2mb 58f 57f
3:00am 5ft 10s 13 18 mph 1016.3mb 58f 57f
2:00am 5ft 10s 13 18 mph 1016.5mb 58f 58f
1:00am 5ft 11s 13 18 mph 1016.8mb 58f 58f
12:00am 4.5ft 11s 16 20 mph 1016.7mb 58f 58f
Mon 08/18 11:00pm 4.5ft 11s 16 18 mph 1016.5mb 58f 58f
10:00pm 4.5ft 11s 16 18 mph 1016.5mb 58f 58f
9:00pm 5ft 10s 16 18 mph 1016.4mb 58f 58f
8:00pm 5ft 10s 13 18 mph 1016.8mb 58f 59f
7:00pm 4.5ft 10s 11 13 mph 1017.3mb 58f 59f
6:00pm 5ft 11s 13 16 mph 1017.6mb 58f 59f
5:00pm 5ft 11s 11 13 mph 1017.7mb 58f 59f
4:00pm 4.5ft 11s 11 13 mph 1017.8mb 58f 59f
3:00pm 4.5ft 12s 9 11 mph 1017.9mb 58f 58f
2:00pm 4.5ft 10s 9 11 mph 1018mb 57f 58f
1:00pm 4.5ft 11s 7 9 mph 1018mb 57f 58f
12:00pm 4.5ft 9s 9
mph
1018.1mb 58f 58f
11:00am 5ft 10s 9 11 mph 1017.9mb 58f 58f
10:00am 5ft 10s 9 11 mph 1017.9mb 58f 58f
9:00am 5ft 8s 7 9 mph 1018.1mb 58f 58f
8:00am 5.5ft 10s 7 9 mph 1018.1mb 57f 58f
7:00am 5.5ft 9s 9 11 mph 1018.1mb 57f 58f
6:00am 6ft 10s 11 13 mph 1018.2mb 57f 58f
5:00am 5.5ft 10s 11 13 mph 1018.1mb 57f 58f
4:00am 5ft 10s 9 11 mph 1018.1mb 56f 58f
3:00am 6ft 10s 7 9 mph 1018.4mb 57f 57f
2:00am 5ft 10s 11 13 mph 1018.5mb 57f 58f
1:00am 5ft 11s 7 9 mph 1018.5mb 57f 58f
12:00am 5ft 11s 7 9 mph 1018.6mb 57f 59f
Sun 08/17 11:00pm 6ft 10s 9 13 mph 1018.9mb 58f 60f
10:00pm 7ft 9s 9 11 mph 1019.1mb 58f 60f
9:00pm 7ft 10s 4 7 mph 1019.2mb 57f 59f
8:00pm 7ft 8s 7
mph
1019.5mb 57f 58f
7:00pm 7ft 9s 11 13 mph 1019.5mb 57f 59f
6:00pm 7ft 9s 13 16 mph 1019.4mb 57f 60f
5:00pm 6.5ft 10s 13 16 mph 1020mb 57f 58f
4:00pm 5.5ft 9s 13 16 mph 1020.9mb 57f 59f
3:00pm 4.5ft 10s 16 18 mph 1021.1mb 57f 58f
2:00pm 3.5ft 10s 16 18 mph 1021.2mb 57f 58f
1:00pm 3.5ft 9s 16 18 mph 1021.5mb 57f 58f
12:00pm 2.5ft 10s 13 16 mph 1022.3mb 57f 58f
11:00am 2.5ft 10s 13 16 mph 1022.1mb 57f 57f
10:00am 2.5ft 9s 9 11 mph 1022.2mb 57f 58f
9:00am 2.5ft 9s 7
mph
1022.3mb 57f 58f
8:00am 3ft 9s 4
mph
1022.2mb 57f 58f
7:00am 3ft 9s 4 7 mph 1021.9mb 57f 58f
6:00am 3ft 9s 7 9 mph 1021.9mb 57f 57f
5:00am 3ft 10s 7
mph
1022.2mb 57f 58f
4:00am 2.5ft 9s 4
mph
1022.2mb 57f 57f
3:00am 2.5ft 10s 4
mph
1022.5mb 58f 57f
2:00am 2.5ft 10s 4
mph
1022.8mb 57f 58f
1:00am 2ft 11s 4
mph
1022.9mb 57f 57f
12:00am 2ft 10s 4 7 mph 1022.8mb 57f 57f
Sat 08/16 11:00pm 2ft 10s 4
mph
1022.8mb 57f 57f
10:00pm 2.5ft 12s 4
mph
1022.8mb 57f 58f
9:00pm 2.5ft 10s 7 9 mph 1022.6mb 57f 58f
8:00pm 2.5ft 10s 9
mph
1022.6mb 58f 58f
7:00pm 3.5ft 9s 9 11 mph 1022.7mb 57f 58f
6:00pm 4ft 11s 9
mph
1022.7mb 58f 59f